Time;durP1;ratioP1;P1;durP2;ratioP2;P2;SDS_P1;SDS_P2;PMS_P1;PMS_P2;Temp;Humidity;BMP_temperature;BMP_pressure;BME280_temperature;BME280_humidity;BME280_pressure;Samples;Min_cycle;Max_cycle;Signal;HPM_P1;HPM_P2
2022/06/19 00:02:01;;;;;;;7.07;3.65;;;12.40;99.90;;;;;;5005559;28;20477;-71
2022/06/19 00:04:27;;;;;;;6.93;3.25;;;12.40;99.90;;;;;;5007892;28;20057;-71
2022/06/19 00:06:53;;;;;;;13.90;3.90;;;12.40;99.90;;;;;;5008337;28;20037;-71
2022/06/19 00:09:19;;;;;;;12.98;3.92;;;12.50;99.90;;;;;;5006746;28;20156;-72
2022/06/19 00:11:45;;;;;;;9.23;4.40;;;12.50;99.90;;;;;;5011823;28;20549;-72
2022/06/19 00:14:11;;;;;;;9.07;4.22;;;12.50;99.90;;;;;;5011692;28;20044;-72
2022/06/19 00:16:37;;;;;;;10.73;4.78;;;12.50;99.90;;;;;;5013101;28;20116;-71
2022/06/19 00:19:05;;;;;;;7.93;3.85;;;12.50;99.90;;;;;;5010516;28;20034;-71
2022/06/19 00:21:31;;;;;;;9.65;3.88;;;12.50;99.90;;;;;;5013222;28;20029;-71
2022/06/19 00:23:57;;;;;;;9.32;3.83;;;12.60;99.90;;;;;;5013029;28;20418;-72
2022/06/19 00:26:23;;;;;;;7.70;3.30;;;12.60;99.90;;;;;;5010609;28;20022;-72
2022/06/19 00:28:49;;;;;;;9.93;3.63;;;12.60;99.90;;;;;;5011412;28;20026;-71
2022/06/19 00:31:15;;;;;;;8.35;3.63;;;12.60;99.90;;;;;;5009701;28;20592;-72
2022/06/19 00:33:41;;;;;;;9.98;4.00;;;12.70;99.90;;;;;;5011838;28;20354;-72
2022/06/19 00:36:07;;;;;;;9.85;3.28;;;12.70;99.90;;;;;;5008453;28;20505;-72
2022/06/19 00:38:33;;;;;;;6.82;3.47;;;12.70;99.90;;;;;;5004652;28;20026;-71
2022/06/19 00:41:00;;;;;;;8.20;3.40;;;12.70;99.90;;;;;;5012007;28;20030;-72
2022/06/19 00:43:27;;;;;;;7.60;3.33;;;12.70;99.90;;;;;;5009975;28;20034;-72
2022/06/19 00:45:54;;;;;;;7.53;3.67;;;12.70;99.90;;;;;;5012302;28;20053;-72
2022/06/19 00:48:26;;;;;;;6.75;3.28;;;12.70;99.90;;;;;;5011050;28;20470;-72
2022/06/19 00:50:53;;;;;;;8.10;3.92;;;12.80;99.90;;;;;;5011966;28;20073;-72
2022/06/19 00:53:27;;;;;;;8.93;4.07;;;12.80;99.90;;;;;;5010000;28;20052;-72
2022/06/19 00:55:53;;;;;;;9.13;4.38;;;12.80;99.90;;;;;;5011627;28;20038;-72
2022/06/19 00:58:34;;;;;;;9.32;4.00;;;12.80;99.90;;;;;;5007942;28;20497;-73
2022/06/19 01:01:04;;;;;;;6.50;3.42;;;12.80;99.90;;;;;;5011144;28;20098;-72
2022/06/19 01:03:36;;;;;;;8.23;4.53;;;12.70;99.90;;;;;;5010014;28;20029;-72
2022/06/19 01:06:02;;;;;;;6.82;4.00;;;12.70;99.90;;;;;;5011939;28;20030;-72
2022/06/19 01:08:27;;;;;;;6.10;3.92;;;12.70;99.90;;;;;;5010562;28;20026;-72
2022/06/19 01:10:54;;;;;;;9.02;4.68;;;12.70;99.90;;;;;;5010912;28;20049;-74
2022/06/19 01:13:25;;;;;;;10.95;4.05;;;12.80;99.90;;;;;;5009896;28;20412;-72
2022/06/19 01:15:51;;;;;;;7.13;4.93;;;12.90;99.90;;;;;;5011809;28;20026;-72
2022/06/19 01:18:18;;;;;;;8.10;4.43;;;12.90;99.90;;;;;;5010554;28;20025;-70
2022/06/19 01:20:44;;;;;;;7.40;4.10;;;13.00;99.90;;;;;;5008053;28;20120;-71
2022/06/19 01:23:10;;;;;;;8.38;4.43;;;13.00;99.90;;;;;;5009166;28;20355;-71
2022/06/19 01:25:38;;;;;;;8.45;4.20;;;12.90;99.90;;;;;;5011896;28;20113;-70
2022/06/19 01:31:01;;;;;;;10.18;4.63;;;12.90;99.90;;;;;;5007791;28;20123;-70
2022/06/19 01:33:38;;;;;;;13.40;5.15;;;12.80;99.90;;;;;;5009900;28;20101;-70
2022/06/19 01:36:05;;;;;;;8.25;4.15;;;12.60;99.90;;;;;;5009762;28;20041;-72
2022/06/19 01:38:33;;;;;;;12.32;4.45;;;12.60;99.90;;;;;;5011937;28;20036;-72
2022/06/19 01:41:04;;;;;;;14.55;4.50;;;12.70;99.90;;;;;;4999428;28;20441;-72
2022/06/19 01:43:30;;;;;;;6.75;2.97;;;12.60;99.90;;;;;;5010523;28;20034;-72
2022/06/19 01:45:57;;;;;;;11.95;3.10;;;12.60;99.90;;;;;;5014978;28;20044;-71
2022/06/19 01:48:27;;;;;;;9.50;3.17;;;12.50;99.90;;;;;;5010353;28;20080;-71
2022/06/19 01:50:53;;;;;;;5.60;2.60;;;12.40;99.90;;;;;;5010399;28;20049;-70
2022/06/19 01:53:51;;;;;;;9.77;2.63;;;12.30;99.90;;;;;;5009740;28;20398;-72
2022/06/19 01:56:17;;;;;;;9.15;2.15;;;12.20;99.90;;;;;;5008944;28;20037;-73
2022/06/19 01:58:47;;;;;;;5.15;1.50;;;12.10;99.90;;;;;;5010251;28;20030;-72
2022/06/19 02:01:14;;;;;;;6.22;1.40;;;12.10;99.90;;;;;;5006792;28;20037;-72
2022/06/19 02:03:43;;;;;;;5.18;1.25;;;11.90;99.90;;;;;;5010864;28;20033;-72
2022/06/19 02:06:12;;;;;;;9.10;1.30;;;11.80;99.90;;;;;;5009338;28;20033;-72
2022/06/19 02:08:40;;;;;;;2.67;1.25;;;11.60;99.90;;;;;;5011291;28;20021;-72
2022/06/19 02:11:07;;;;;;;4.78;1.10;;;11.60;99.90;;;;;;5006886;28;20137;-73
2022/06/19 02:13:34;;;;;;;8.20;1.95;;;11.60;99.90;;;;;;5009849;28;20749;-72
2022/06/19 02:16:04;;;;;;;4.10;1.02;;;11.60;99.90;;;;;;5007285;28;20059;-71
2022/06/19 02:18:36;;;;;;;7.93;1.50;;;11.50;99.90;;;;;;5008611;28;20030;-72
2022/06/19 02:21:04;;;;;;;3.83;0.95;;;11.50;99.90;;;;;;5010398;28;20120;-71
2022/06/19 02:23:34;;;;;;;4.88;1.05;;;11.50;99.90;;;;;;5011033;28;20037;-71
2022/06/19 02:26:01;;;;;;;2.75;0.95;;;11.50;99.90;;;;;;5008435;28;20119;-71
2022/06/19 02:28:28;;;;;;;6.50;1.10;;;11.40;99.90;;;;;;5009126;28;20034;-72
2022/06/19 02:30:54;;;;;;;6.35;0.85;;;11.50;99.90;;;;;;5007656;28;20046;-72
2022/06/19 02:33:26;;;;;;;3.70;0.90;;;11.50;99.90;;;;;;5008982;28;20030;-73
2022/06/19 02:35:52;;;;;;;2.95;1.58;;;11.50;99.90;;;;;;5000779;28;20026;-73
2022/06/19 02:38:20;;;;;;;4.93;1.92;;;11.50;99.90;;;;;;5008932;28;20034;-73
2022/06/19 02:41:12;;;;;;;2.25;1.02;;;11.40;99.90;;;;;;5010309;28;20068;-70
2022/06/19 02:43:37;;;;;;;3.78;1.00;;;11.40;99.90;;;;;;5009640;28;20046;-72
2022/06/19 02:46:08;;;;;;;8.45;2.13;;;11.40;99.90;;;;;;5009451;28;20033;-71
2022/06/19 02:48:33;;;;;;;5.50;1.80;;;11.40;99.90;;;;;;5007892;28;20030;-71
2022/06/19 02:51:02;;;;;;;4.35;1.48;;;11.40;99.90;;;;;;5010266;28;20051;-71
2022/06/19 02:53:29;;;;;;;5.85;0.95;;;11.40;99.90;;;;;;5009125;28;20117;-71
2022/06/19 02:55:55;;;;;;;4.22;1.15;;;11.40;99.90;;;;;;5008743;28;20033;-72
2022/06/19 02:58:21;;;;;;;7.85;1.20;;;11.40;99.90;;;;;;5008546;28;20023;-72
2022/06/19 03:00:49;;;;;;;3.70;0.80;;;11.40;99.90;;;;;;5010358;28;20022;-71
2022/06/19 03:03:35;;;;;;;4.20;1.20;;;11.40;99.90;;;;;;5007922;28;20056;-71
2022/06/19 03:06:02;;;;;;;3.55;1.08;;;11.50;99.90;;;;;;5007426;28;20080;-71
2022/06/19 03:08:27;;;;;;;5.15;1.40;;;11.50;99.90;;;;;;5007918;28;20026;-71
2022/06/19 03:10:53;;;;;;;4.57;1.15;;;11.40;99.90;;;;;;5009778;28;20045;-71
2022/06/19 03:13:20;;;;;;;5.63;1.58;;;11.50;99.90;;;;;;5018686;28;20018;-71
2022/06/19 03:15:45;;;;;;;4.15;0.98;;;11.40;99.90;;;;;;5008476;28;20029;-71
2022/06/19 03:18:11;;;;;;;4.50;1.38;;;11.50;99.90;;;;;;5007993;28;20025;-71
2022/06/19 03:20:37;;;;;;;4.05;1.48;;;11.40;99.90;;;;;;5010005;28;20437;-71
2022/06/19 03:23:03;;;;;;;5.45;1.70;;;11.40;99.90;;;;;;5009664;28;20033;-71
2022/06/19 03:25:30;;;;;;;8.13;1.70;;;11.40;99.90;;;;;;5008816;28;20549;-72
2022/06/19 03:27:57;;;;;;;3.88;0.98;;;11.40;99.90;;;;;;5009375;28;20018;-71
2022/06/19 03:30:23;;;;;;;5.10;1.50;;;11.40;99.90;;;;;;5007829;28;20399;-71
2022/06/19 03:32:49;;;;;;;3.58;1.30;;;11.40;99.90;;;;;;5010016;28;20034;-71
2022/06/19 03:35:16;;;;;;;4.47;1.10;;;11.40;99.90;;;;;;5006944;28;20486;-71
2022/06/19 03:37:41;;;;;;;4.30;1.30;;;11.40;99.90;;;;;;5008290;28;20024;-70
2022/06/19 03:40:09;;;;;;;5.55;1.52;;;11.50;99.90;;;;;;5007182;28;20083;-71
2022/06/19 03:42:34;;;;;;;6.35;1.60;;;11.60;99.90;;;;;;5018824;23;20042;-67
2022/06/19 03:45:00;;;;;;;5.47;1.10;;;11.50;99.90;;;;;;5007567;28;20097;-67
2022/06/19 03:47:27;;;;;;;4.20;1.30;;;11.50;99.90;;;;;;5006919;28;20025;-66
2022/06/19 03:49:53;;;;;;;8.10;1.45;;;11.50;99.90;;;;;;5009324;28;20033;-68
2022/06/19 03:52:19;;;;;;;4.13;1.20;;;11.60;99.90;;;;;;5008022;28;20037;-68
2022/06/19 03:54:45;;;;;;;5.63;1.15;;;11.50;99.90;;;;;;5008683;28;20025;-68
2022/06/19 03:57:12;;;;;;;5.35;1.40;;;11.50;99.90;;;;;;5005231;28;20112;-69
2022/06/19 03:59:38;;;;;;;6.07;1.20;;;11.50;99.90;;;;;;5009769;28;20026;-68
2022/06/19 04:02:05;;;;;;;4.60;1.38;;;11.40;99.90;;;;;;5007908;28;20034;-69
2022/06/19 04:04:31;;;;;;;3.63;1.40;;;11.40;99.90;;;;;;5006932;28;20429;-68
2022/06/19 04:06:57;;;;;;;5.45;1.90;;;11.30;99.90;;;;;;5007798;28;20500;-68
2022/06/19 04:09:22;;;;;;;7.95;2.15;;;11.30;99.90;;;;;;5007589;28;20084;-68
2022/06/19 04:11:48;;;;;;;4.07;1.60;;;11.20;99.90;;;;;;5009187;28;20022;-68
2022/06/19 04:14:15;;;;;;;3.53;1.77;;;11.20;99.90;;;;;;5007473;28;20522;-68
2022/06/19 04:16:42;;;;;;;4.13;1.48;;;11.30;99.90;;;;;;5008850;28;20386;-69
2022/06/19 04:19:09;;;;;;;5.32;1.67;;;11.30;99.90;;;;;;5007516;28;20463;-68
2022/06/19 04:21:39;;;;;;;6.72;1.70;;;11.40;99.90;;;;;;5009098;28;20096;-68
2022/06/19 04:24:06;;;;;;;8.00;1.85;;;11.60;99.90;;;;;;5007413;28;20111;-67
2022/06/19 04:26:36;;;;;;;6.55;1.80;;;11.60;99.90;;;;;;5003873;28;20056;-68
2022/06/19 04:29:03;;;;;;;5.72;1.95;;;11.60;99.90;;;;;;5009139;28;20134;-67
2022/06/19 04:31:28;;;;;;;5.32;2.17;;;11.60;99.90;;;;;;5007196;28;20032;-67
2022/06/19 04:33:54;;;;;;;5.60;1.70;;;11.60;99.90;;;;;;5009163;28;20117;-68
2022/06/19 04:36:22;;;;;;;4.68;2.35;;;11.50;99.90;;;;;;5006447;28;20034;-67
2022/06/19 04:38:50;;;;;;;5.35;1.30;;;11.60;99.90;;;;;;5006043;28;20474;-68
2022/06/19 04:41:26;;;;;;;4.13;1.67;;;11.70;99.90;;;;;;5006139;28;20036;-68
2022/06/19 04:43:53;;;;;;;2.97;1.38;;;11.60;99.90;;;;;;5006722;28;20041;-68
2022/06/19 04:46:19;;;;;;;2.80;1.27;;;11.60;99.90;;;;;;5005375;28;20473;-66
2022/06/19 04:48:46;;;;;;;8.85;1.80;;;11.50;99.90;;;;;;5008261;28;20113;-67
2022/06/19 04:51:12;;;;;;;3.17;1.30;;;11.60;99.90;;;;;;5006901;28;20053;-67
2022/06/19 04:53:39;;;;;;;6.75;2.15;;;11.60;99.90;;;;;;5009062;28;20026;-67
2022/06/19 04:56:06;;;;;;;8.00;1.33;;;11.70;99.90;;;;;;5005974;28;20034;-67
2022/06/19 04:58:32;;;;;;;7.82;1.63;;;11.70;99.90;;;;;;5010571;28;20026;-68
2022/06/19 05:01:01;;;;;;;5.35;1.40;;;11.60;99.90;;;;;;5012127;28;20030;-67
2022/06/19 05:03:27;;;;;;;5.88;2.05;;;11.60;99.90;;;;;;5009884;28;20040;-69
2022/06/19 05:05:53;;;;;;;9.88;1.52;;;11.80;99.90;;;;;;5006682;28;20077;-68
2022/06/19 05:08:20;;;;;;;3.03;1.10;;;11.80;99.90;;;;;;5010408;28;20125;-68
2022/06/19 05:10:46;;;;;;;4.75;1.10;;;11.80;99.90;;;;;;5011638;28;20073;-63
2022/06/19 05:13:29;;;;;;;5.50;1.17;;;11.80;99.90;;;;;;5002110;28;20492;-67
2022/06/19 05:16:07;;;;;;;6.95;1.23;;;11.90;99.90;;;;;;5010495;28;20421;-67
2022/06/19 05:18:34;;;;;;;8.88;1.50;;;11.80;99.90;;;;;;5005194;28;20033;-68
2022/06/19 05:21:01;;;;;;;8.68;1.25;;;11.90;99.90;;;;;;5011360;28;20030;-68
2022/06/19 05:23:28;;;;;;;5.88;2.17;;;11.90;99.90;;;;;;5010242;28;20536;-68
2022/06/19 05:26:03;;;;;;;5.82;1.30;;;11.80;99.90;;;;;;5009748;28;20049;-67
2022/06/19 05:28:30;;;;;;;8.00;1.50;;;11.90;99.90;;;;;;5009746;28;20030;-67
2022/06/19 05:30:57;;;;;;;5.57;1.13;;;11.80;99.90;;;;;;5011106;28;20494;-67
2022/06/19 05:33:23;;;;;;;3.65;1.20;;;12.00;99.90;;;;;;5010231;28;20493;-68
2022/06/19 05:35:49;;;;;;;5.80;1.27;;;12.00;99.90;;;;;;5009764;28;20025;-68
2022/06/19 05:38:15;;;;;;;6.07;1.30;;;12.10;99.90;;;;;;5008940;28;20439;-67
2022/06/19 05:40:41;;;;;;;6.78;1.25;;;12.20;99.90;;;;;;5011707;28;20113;-67
2022/06/19 05:43:07;;;;;;;7.00;1.17;;;12.20;99.90;;;;;;5008559;28;20137;-67
2022/06/19 05:45:34;;;;;;;6.50;1.45;;;12.20;99.90;;;;;;5010282;28;20087;-68
2022/06/19 05:48:00;;;;;;;7.57;1.58;;;12.10;99.90;;;;;;5011610;28;20036;-68
2022/06/19 05:50:25;;;;;;;7.53;1.05;;;12.10;99.90;;;;;;5009644;28;20038;-68
2022/06/19 05:52:51;;;;;;;8.77;1.30;;;12.20;99.90;;;;;;5011610;28;20021;-68
2022/06/19 05:55:17;;;;;;;10.93;1.60;;;12.10;99.90;;;;;;5007373;28;20032;-67
2022/06/19 05:57:42;;;;;;;12.32;1.40;;;12.10;99.90;;;;;;5000629;28;20029;-67
2022/06/19 06:00:09;;;;;;;9.27;2.28;;;12.20;99.90;;;;;;5009858;28;20469;-68
2022/06/19 06:02:35;;;;;;;11.77;2.17;;;12.20;99.90;;;;;;5011362;28;20032;-67
2022/06/19 06:05:02;;;;;;;5.20;1.35;;;12.20;99.90;;;;;;5010302;28;20179;-68
2022/06/19 06:07:28;;;;;;;6.28;1.35;;;12.30;99.90;;;;;;5006980;28;20406;-67
2022/06/19 06:09:54;;;;;;;8.75;1.70;;;12.20;99.90;;;;;;5010768;28;20037;-67
2022/06/19 06:12:20;;;;;;;7.00;1.40;;;12.30;99.90;;;;;;5008026;28;20041;-67
2022/06/19 06:14:46;;;;;;;9.52;1.70;;;12.30;99.90;;;;;;4998952;28;20466;-68
2022/06/19 06:17:11;;;;;;;6.22;1.20;;;12.30;99.90;;;;;;5006639;28;20022;-68
2022/06/19 06:19:37;;;;;;;11.90;1.58;;;12.40;99.90;;;;;;5010455;28;20044;-67
2022/06/19 06:22:04;;;;;;;7.18;1.48;;;12.30;99.90;;;;;;5010407;28;20033;-68
2022/06/19 06:24:31;;;;;;;7.13;1.70;;;12.30;99.90;;;;;;5010883;28;20452;-68
2022/06/19 06:27:00;;;;;;;6.53;1.70;;;12.40;99.90;;;;;;5008713;28;20034;-69
2022/06/19 06:29:25;;;;;;;11.25;1.95;;;12.50;99.90;;;;;;5008812;28;20100;-68
2022/06/19 06:31:51;;;;;;;5.53;1.52;;;12.50;99.90;;;;;;5009280;28;20486;-69
2022/06/19 06:34:17;;;;;;;8.23;1.70;;;12.40;99.90;;;;;;5008421;28;20034;-68
2022/06/19 06:36:43;;;;;;;12.13;1.52;;;12.30;99.90;;;;;;5010571;28;20121;-67
2022/06/19 06:39:09;;;;;;;8.50;1.77;;;12.50;99.90;;;;;;5008823;28;20029;-66
2022/06/19 06:41:35;;;;;;;13.00;1.98;;;12.60;99.90;;;;;;5009334;28;20022;-67
2022/06/19 06:44:01;;;;;;;7.15;1.75;;;12.60;99.90;;;;;;5010024;28;20107;-67
2022/06/19 06:46:27;;;;;;;8.63;2.08;;;12.70;99.90;;;;;;5008678;28;20105;-67
2022/06/19 06:48:59;;;;;;;7.97;1.85;;;12.80;99.90;;;;;;5010016;28;20605;-67
2022/06/19 06:51:27;;;;;;;9.05;2.38;;;12.80;99.90;;;;;;5007311;28;20045;-67
2022/06/19 06:53:53;;;;;;;8.25;1.80;;;12.90;99.90;;;;;;5003966;28;20018;-67
2022/06/19 06:56:20;;;;;;;9.70;2.60;;;13.10;99.90;;;;;;5004714;28;20504;-68
2022/06/19 06:58:46;;;;;;;10.52;1.67;;;13.20;99.90;;;;;;5008464;28;20116;-66
2022/06/19 07:01:15;;;;;;;12.00;1.73;;;13.30;99.90;;;;;;5006988;28;20037;-66
2022/06/19 07:03:43;;;;;;;13.25;2.22;;;13.30;99.90;;;;;;5009022;28;20026;-67
2022/06/19 07:06:10;;;;;;;8.48;2.25;;;13.40;99.90;;;;;;5008358;28;20502;-67
2022/06/19 07:08:37;;;;;;;8.60;1.95;;;13.40;99.90;;;;;;5010164;28;20426;-67
2022/06/19 07:11:03;;;;;;;10.30;2.33;;;13.50;99.90;;;;;;5006343;28;20494;-67
2022/06/19 07:13:28;;;;;;;10.10;1.60;;;13.70;99.90;;;;;;5008358;28;20022;-67
2022/06/19 07:15:54;;;;;;;10.48;2.22;;;13.80;99.90;;;;;;5009692;28;20041;-66
2022/06/19 07:18:20;;;;;;;10.82;1.75;;;14.00;99.90;;;;;;5008044;28;20442;-67
2022/06/19 07:20:46;;;;;;;5.78;1.88;;;14.10;99.90;;;;;;5007753;28;20100;-68
2022/06/19 07:23:12;;;;;;;8.45;1.75;;;14.20;99.90;;;;;;5007944;28;20532;-67
2022/06/19 07:25:38;;;;;;;11.98;1.98;;;14.30;99.90;;;;;;5008759;28;20087;-67
2022/06/19 07:28:05;;;;;;;8.82;1.80;;;14.40;99.90;;;;;;5007431;28;20026;-67
2022/06/19 07:30:30;;;;;;;13.50;2.28;;;14.40;99.90;;;;;;5008196;28;20037;-67
2022/06/19 07:32:56;;;;;;;11.05;1.85;;;14.60;99.90;;;;;;5008317;28;20101;-67
2022/06/19 07:35:23;;;;;;;7.72;1.90;;;14.70;99.90;;;;;;5008025;28;20026;-67
2022/06/19 07:37:51;;;;;;;6.18;1.83;;;14.70;99.90;;;;;;5007236;28;20101;-66
2022/06/19 07:40:19;;;;;;;11.27;2.65;;;14.80;99.90;;;;;;5004516;28;20026;-66
2022/06/19 07:42:45;;;;;;;4.97;1.63;;;14.70;99.90;;;;;;5003372;28;20118;-67
2022/06/19 07:45:12;;;;;;;8.38;1.80;;;14.60;99.90;;;;;;5005038;28;20042;-67
2022/06/19 07:50:23;;;;;;;7.15;1.90;;;14.50;99.90;;;;;;5005308;28;20052;-66
2022/06/19 07:52:50;;;;;;;7.88;1.90;;;14.80;99.90;;;;;;5005319;28;20030;-67
2022/06/19 07:55:21;;;;;;;12.10;2.00;;;15.00;99.90;;;;;;5006403;28;20061;-67
2022/06/19 07:57:47;;;;;;;12.93;2.07;;;15.10;99.90;;;;;;5002339;28;20462;-67
2022/06/19 08:00:19;;;;;;;13.55;1.98;;;15.20;99.90;;;;;;5006820;28;20779;-67
2022/06/19 08:02:46;;;;;;;;;;;15.30;99.90;;;;;;5002031;28;20080;-68
2022/06/19 08:05:12;;;;;;;7.78;1.30;;;15.30;99.90;;;;;;5007320;28;19909;-67
2022/06/19 08:07:40;;;;;;;9.43;1.67;;;15.30;99.90;;;;;;5002107;28;20022;-67
2022/06/19 08:10:07;;;;;;;5.25;1.58;;;15.40;99.90;;;;;;5003406;28;20068;-67
2022/06/19 08:12:33;;;;;;;6.68;1.70;;;15.40;99.90;;;;;;4998157;28;20149;-67
2022/06/19 08:14:59;;;;;;;11.00;2.10;;;15.30;99.90;;;;;;5007703;28;20117;-67
2022/06/19 08:17:25;;;;;;;15.05;2.53;;;15.30;99.90;;;;;;5007734;28;20620;-67
2022/06/19 08:19:51;;;;;;;9.15;2.00;;;14.90;99.90;;;;;;5007473;28;20018;-67
2022/06/19 08:22:17;;;;;;;7.30;1.98;;;15.00;99.90;;;;;;5007373;28;20040;-67
2022/06/19 08:24:42;;;;;;;10.32;1.80;;;14.90;99.90;;;;;;5028130;28;20421;-67
2022/06/19 08:27:08;;;;;;;7.38;1.40;;;14.60;99.90;;;;;;4994801;28;20120;-68
2022/06/19 08:29:35;;;;;;;9.20;2.47;;;14.60;99.90;;;;;;5003285;28;20046;-67
2022/06/19 08:32:03;;;;;;;11.15;2.90;;;14.70;99.90;;;;;;5010013;28;20034;-68
2022/06/19 08:34:29;;;;;;;7.15;1.58;;;14.80;99.90;;;;;;5003825;28;20033;-68
2022/06/19 08:36:56;;;;;;;9.10;1.65;;;14.90;99.90;;;;;;5008947;28;20394;-68
2022/06/19 08:39:22;;;;;;;9.10;1.90;;;15.10;99.90;;;;;;5009820;28;20117;-68
2022/06/19 08:42:06;;;;;;;8.57;1.95;;;15.20;99.90;;;;;;5009499;28;20117;-65
2022/06/19 08:44:41;;;;;;;8.10;1.70;;;15.30;99.90;;;;;;5004501;28;20088;-67
2022/06/19 08:47:27;;;;;;;7.57;1.58;;;15.30;99.90;;;;;;5004678;28;20491;-68
2022/06/19 08:50:06;;;;;;;5.97;2.05;;;15.30;99.90;;;;;;5012145;28;20072;-67
2022/06/19 08:52:44;;;;;;;6.07;1.45;;;15.40;99.90;;;;;;5008126;28;20237;-66
2022/06/19 08:55:31;;;;;;;9.93;1.65;;;15.40;99.90;;;;;;5010124;28;20044;-67
2022/06/19 08:58:12;;;;;;;5.38;1.50;;;15.40;99.90;;;;;;5010207;28;20030;-66
2022/06/19 09:00:41;;;;;;;11.13;1.70;;;15.70;99.90;;;;;;5008045;28;20030;-63
2022/06/19 09:03:23;;;;;;;9.07;1.67;;;16.20;99.90;;;;;;5010616;28;20321;-65
2022/06/19 09:06:23;;;;;;;14.02;1.83;;;16.80;99.90;;;;;;5010369;28;20061;-67
2022/06/19 09:09:01;;;;;;;5.63;1.40;;;17.40;99.90;;;;;;4949358;29;20039;-67
2022/06/19 09:11:29;;;;;;;9.25;1.33;;;17.70;99.90;;;;;;4946871;29;20079;-66
2022/06/19 09:14:22;;;;;;;5.45;2.15;;;17.80;99.90;;;;;;4942711;29;20031;-66
2022/06/19 09:17:03;;;;;;;8.75;1.55;;;17.50;99.90;;;;;;4946813;29;20023;-66
2022/06/19 09:19:32;;;;;;;13.00;2.45;;;17.20;99.90;;;;;;4947611;29;20396;-67
2022/06/19 09:22:16;;;;;;;7.65;2.15;;;17.00;99.90;;;;;;4947634;29;20035;-67
2022/06/19 09:25:01;;;;;;;5.65;1.25;;;16.80;99.90;;;;;;4950161;29;20390;-66
2022/06/19 09:27:56;;;;;;;6.65;1.75;;;16.70;99.90;;;;;;4941078;29;20020;-67
2022/06/19 09:30:34;;;;;;;8.07;1.90;;;16.60;99.90;;;;;;4936904;28;20087;-68
2022/06/19 09:33:29;;;;;;;7.22;1.33;;;16.50;99.90;;;;;;4951480;29;20090;-66
2022/06/19 09:35:59;;;;;;;6.38;1.40;;;16.60;99.90;;;;;;4946519;29;20047;-67
2022/06/19 09:38:38;;;;;;;7.10;2.00;;;16.50;99.90;;;;;;4945483;29;20681;-66
2022/06/19 09:41:08;;;;;;;12.00;1.52;;;16.50;99.90;;;;;;4948057;29;20040;-66
2022/06/19 09:43:40;;;;;;;15.07;2.20;;;16.50;99.90;;;;;;4957966;28;20106;-67
2022/06/19 09:46:13;;;;;;;7.63;2.08;;;16.50;99.90;;;;;;5003739;28;20034;-67
2022/06/19 09:48:52;;;;;;;5.63;1.50;;;16.50;99.90;;;;;;5014258;28;20030;-66
2022/06/19 09:51:45;;;;;;;6.00;1.55;;;16.40;99.90;;;;;;5009002;28;20084;-67
2022/06/19 09:54:19;;;;;;;9.15;1.67;;;16.30;99.90;;;;;;5010309;28;20048;-67
2022/06/19 09:57:00;;;;;;;6.35;1.45;;;16.30;99.90;;;;;;5010753;28;20548;-65
2022/06/19 09:59:49;;;;;;;8.50;1.90;;;16.40;99.90;;;;;;5010073;28;20513;-66
2022/06/19 10:02:35;;;;;;;7.70;1.50;;;16.50;99.90;;;;;;5009078;28;20171;-66
2022/06/19 10:05:13;;;;;;;5.88;1.30;;;16.60;99.90;;;;;;5010338;28;20040;-67
2022/06/19 10:07:49;;;;;;;7.85;1.20;;;16.80;99.90;;;;;;5011740;28;20040;-68
2022/06/19 10:10:47;;;;;;;7.18;1.45;;;16.90;99.90;;;;;;5008050;28;20078;-68
2022/06/19 10:13:31;;;;;;;6.57;1.52;;;17.00;99.90;;;;;;4998390;28;20069;-66
2022/06/19 10:16:00;;;;;;;7.95;1.30;;;17.20;99.90;;;;;;5005078;28;20040;-67
2022/06/19 10:18:34;;;;;;;7.80;1.40;;;17.30;99.90;;;;;;5007136;28;20041;-66
2022/06/19 10:24:33;;;;;;;7.55;1.73;;;17.40;99.90;;;;;;5004867;28;20088;-66
2022/06/19 10:27:13;;;;;;;8.40;1.58;;;17.40;99.90;;;;;;5008497;28;20076;-67
2022/06/19 10:30:08;;;;;;;8.02;1.52;;;17.20;99.90;;;;;;5008945;28;20032;-66
2022/06/19 10:33:07;;;;;;;6.97;1.27;;;17.10;99.90;;;;;;5009205;28;20441;-66
2022/06/19 10:35:59;;;;;;;6.28;1.52;;;17.30;99.90;;;;;;5010262;28;20076;-66
2022/06/19 10:38:36;;;;;;;8.20;2.00;;;17.20;99.90;;;;;;4977429;28;20048;-67
2022/06/19 10:44:35;;;;;;;7.00;1.35;;;17.30;99.90;;;;;;5005043;28;20064;-66
2022/06/19 10:47:29;;;;;;;9.13;1.90;;;17.40;99.90;;;;;;5009713;28;20042;-66
2022/06/19 10:50:13;;;;;;;8.45;1.35;;;17.40;99.90;;;;;;5009932;28;20096;-66
2022/06/19 10:53:03;;;;;;;6.80;2.17;;;17.20;99.90;;;;;;5010037;28;20030;-66
2022/06/19 10:55:37;;;;;;;11.70;1.45;;;16.90;99.90;;;;;;5008116;28;20030;-67
2022/06/19 10:58:23;;;;;;;7.75;1.63;;;16.70;99.90;;;;;;5001773;28;20041;-67
2022/06/19 11:00:54;;;;;;;8.02;1.83;;;16.60;99.90;;;;;;5009928;28;20091;-66
2022/06/19 11:06:45;;;;;;;9.80;1.45;;;16.70;99.90;;;;;;5001579;28;20072;-65
2022/06/19 11:09:34;;;;;;;5.43;1.33;;;16.70;99.90;;;;;;5005896;28;20033;-64
2022/06/19 11:12:24;;;;;;;5.22;1.13;;;16.80;99.90;;;;;;5007792;28;20116;-65
2022/06/19 11:14:55;;;;;;;6.65;1.60;;;17.10;99.90;;;;;;5004869;28;20026;-66
2022/06/19 11:17:39;;;;;;;5.40;1.40;;;17.60;99.90;;;;;;5008050;28;20065;-65
2022/06/19 11:20:17;;;;;;;7.57;2.20;;;17.80;99.90;;;;;;5013584;28;20077;-66
2022/06/19 11:22:48;;;;;;;11.18;1.42;;;18.10;99.90;;;;;;5005134;28;20452;-66
2022/06/19 11:25:20;;;;;;;12.13;1.50;;;18.20;99.90;;;;;;5007804;28;20482;-66
2022/06/19 11:28:08;;;;;;;12.88;2.42;;;18.50;99.90;;;;;;5006710;28;20109;-65
2022/06/19 11:30:37;;;;;;;7.55;1.95;;;18.70;99.90;;;;;;5005827;28;20033;-65
2022/06/19 11:33:07;;;;;;;8.05;1.25;;;18.80;99.90;;;;;;5009311;28;20133;-67
2022/06/19 11:35:46;;;;;;;6.45;1.25;;;18.70;99.90;;;;;;5009523;28;20041;-67
2022/06/19 11:38:14;;;;;;;7.47;1.60;;;18.60;99.90;;;;;;5006843;28;20378;-66
2022/06/19 11:40:42;;;;;;;5.75;1.17;;;18.50;99.90;;;;;;5009316;28;20022;-67
2022/06/19 11:43:30;;;;;;;9.40;1.40;;;18.40;99.90;;;;;;5007062;28;20084;-66
2022/06/19 11:46:14;;;;;;;8.10;2.00;;;18.50;99.90;;;;;;5001727;28;20069;-67
2022/06/19 11:48:40;;;;;;;8.88;1.85;;;18.60;99.90;;;;;;5004634;28;20040;-67
2022/06/19 11:51:17;;;;;;;7.93;2.28;;;18.80;99.90;;;;;;5007836;28;20038;-67
2022/06/19 11:53:49;;;;;;;11.05;1.75;;;18.90;99.90;;;;;;5009078;28;20034;-67
2022/06/19 11:56:20;;;;;;;7.60;1.67;;;18.90;99.90;;;;;;5005334;28;20033;-66
2022/06/19 11:58:56;;;;;;;6.57;1.55;;;19.20;99.90;;;;;;5009099;28;20103;-67
2022/06/19 12:01:33;;;;;;;7.32;1.42;;;19.60;99.90;;;;;;5007653;28;20065;-66
2022/06/19 12:04:02;;;;;;;8.68;1.63;;;20.00;99.90;;;;;;5009293;28;20058;-68
2022/06/19 12:06:50;;;;;;;7.00;1.60;;;20.30;99.90;;;;;;5007096;28;20490;-67
2022/06/19 12:09:45;;;;;;;8.40;2.67;;;20.50;99.90;;;;;;5011083;28;20125;-66
2022/06/19 12:12:11;;;;;;;5.07;1.48;;;21.20;99.90;;;;;;5019413;23;20196;-65
2022/06/19 12:15:00;;;;;;;6.28;1.20;;;21.40;99.10;;;;;;5013014;28;20061;-65
2022/06/19 12:17:37;;;;;;;5.55;1.55;;;20.90;98.60;;;;;;5010169;28;20489;-66
2022/06/19 12:20:06;;;;;;;5.82;2.13;;;21.10;99.70;;;;;;5009409;28;20545;-66
2022/06/19 12:22:52;;;;;;;6.63;1.65;;;21.40;97.50;;;;;;5012236;28;20496;-66
2022/06/19 12:25:33;;;;;;;8.57;1.30;;;21.90;97.20;;;;;;5008150;28;20109;-67
2022/06/19 12:28:26;;;;;;;4.90;1.27;;;22.20;96.80;;;;;;5010401;28;20034;-66
2022/06/19 12:31:06;;;;;;;6.60;1.08;;;22.70;95.00;;;;;;5007586;28;20042;-66
2022/06/19 12:33:56;;;;;;;8.23;1.85;;;23.10;93.90;;;;;;5007661;28;20073;-65
2022/06/19 12:36:27;;;;;;;5.60;1.33;;;22.60;93.80;;;;;;5002580;28;20048;-65
2022/06/19 12:38:53;;;;;;;8.50;1.25;;;22.80;95.90;;;;;;5008738;28;20049;-65
2022/06/19 12:41:28;;;;;;;4.85;1.55;;;23.00;95.10;;;;;;5008703;28;20072;-67
2022/06/19 12:44:09;;;;;;;4.70;1.27;;;24.00;93.80;;;;;;5012190;28;20053;-66
2022/06/19 12:47:03;;;;;;;4.80;1.05;;;24.30;90.60;;;;;;5004569;28;20096;-66
2022/06/19 12:50:02;;;;;;;6.72;1.40;;;24.40;88.10;;;;;;4998498;28;20038;-66
2022/06/19 12:52:55;;;;;;;3.13;0.82;;;23.80;90.40;;;;;;5004955;28;20030;-67
2022/06/19 12:55:30;;;;;;;4.03;1.20;;;24.20;86.60;;;;;;5002043;28;20087;-66
2022/06/19 12:58:17;;;;;;;3.38;1.35;;;24.60;78.10;;;;;;5008106;28;20045;-66
2022/06/19 13:00:58;;;;;;;5.80;1.13;;;24.00;78.20;;;;;;5002690;28;20395;-67
2022/06/19 13:03:42;;;;;;;3.03;0.93;;;23.70;79.40;;;;;;5008892;28;20033;-67
2022/06/19 13:06:44;;;;;;;7.93;1.50;;;23.50;80.20;;;;;;5008284;28;20478;-65
2022/06/19 13:09:34;;;;;;;7.40;0.98;;;23.40;81.00;;;;;;5005561;28;20482;-66
2022/06/19 13:12:15;;;;;;;5.43;1.00;;;23.40;82.30;;;;;;5006554;28;20116;-67
2022/06/19 13:14:44;;;;;;;8.15;1.42;;;23.50;78.80;;;;;;5010850;28;20410;-65
2022/06/19 13:17:29;;;;;;;6.45;1.30;;;23.40;80.10;;;;;;5009519;28;20034;-67
2022/06/19 13:20:24;;;;;;;4.93;1.00;;;23.60;78.60;;;;;;5000922;28;20038;-65
2022/06/19 13:23:11;;;;;;;6.70;1.55;;;23.60;78.20;;;;;;5006068;28;20026;-65
2022/06/19 13:25:46;;;;;;;9.88;1.20;;;23.50;81.90;;;;;;5003835;28;20029;-67